<?xml version="1.0" encoding="UTF-8" standalone="no" ?>
<gpx xmlns="http://www.topografix.com/GPX/1/1" xmlns:xsi="http://www.w3.org/2001/XMLSchema-instance" xsi:schemaLocation="http://www.topografix.com/GPX/1/1 http://www.topografix.com/GPX/1/1/gpx.xsd" version="1.1" creator="VisuGPX - https://www.visugpx.com">
  <metadata>
    <name>Vacances 2021</name>
  </metadata>
  <trk>
    <name><![CDATA[Journal actif: 2021-07-29 16:41]]></name>
    <trkseg>
      <trkpt lat="49.2037" lon="-0.12479">
        <ele>-1.3</ele>
        <time>2021-07-29T18:41:24Z</time>
      </trkpt>
      <trkpt lat="49.20097" lon="-0.12868">
        <ele>0.14</ele>
        <time>2021-07-29T18:41:43Z</time>
      </trkpt>
      <trkpt lat="49.19966" lon="-0.13058">
        <ele>3.02</ele>
        <time>2021-07-29T18:41:53Z</time>
      </trkpt>
      <trkpt lat="49.19785" lon="-0.13315">
        <ele>7.35</ele>
        <time>2021-07-29T18:42:07Z</time>
      </trkpt>
      <trkpt lat="49.19551" lon="-0.13653">
        <ele>12.63</ele>
        <time>2021-07-29T18:42:23Z</time>
      </trkpt>
      <trkpt lat="49.19447" lon="-0.13885">
        <ele>6.39</ele>
        <time>2021-07-29T18:42:32Z</time>
      </trkpt>
      <trkpt lat="49.19236" lon="-0.14407">
        <ele>4.46</ele>
        <time>2021-07-29T18:42:50Z</time>
      </trkpt>
      <trkpt lat="49.18902" lon="-0.15219">
        <ele>5.42</ele>
        <time>2021-07-29T18:43:18Z</time>
      </trkpt>
      <trkpt lat="49.18748" lon="-0.15541">
        <ele>6.87</ele>
        <time>2021-07-29T18:43:30Z</time>
      </trkpt>
      <trkpt lat="49.18626" lon="-0.15756">
        <ele>10.23</ele>
        <time>2021-07-29T18:43:40Z</time>
      </trkpt>
      <trkpt lat="49.1857" lon="-0.15891">
        <ele>10.23</ele>
        <time>2021-07-29T18:43:47Z</time>
      </trkpt>
      <trkpt lat="49.18491" lon="-0.16115">
        <ele>10.23</ele>
        <time>2021-07-29T18:44:00Z</time>
      </trkpt>
      <trkpt lat="49.1848" lon="-0.16152">
        <ele>9.27</ele>
        <time>2021-07-29T18:44:02Z</time>
      </trkpt>
      <trkpt lat="49.18435" lon="-0.16402">
        <ele>6.39</ele>
        <time>2021-07-29T18:44:13Z</time>
      </trkpt>
      <trkpt lat="49.18411" lon="-0.16603">
        <ele>5.42</ele>
        <time>2021-07-29T18:44:22Z</time>
      </trkpt>
      <trkpt lat="49.1837" lon="-0.17057">
        <ele>3.98</ele>
        <time>2021-07-29T18:44:38Z</time>
      </trkpt>
      <trkpt lat="49.18336" lon="-0.17343">
        <ele>4.94</ele>
        <time>2021-07-29T18:44:48Z</time>
      </trkpt>
      <trkpt lat="49.18311" lon="-0.1752">
        <ele>5.42</ele>
        <time>2021-07-29T18:44:56Z</time>
      </trkpt>
      <trkpt lat="49.18271" lon="-0.17856">
        <ele>19.36</ele>
        <time>2021-07-29T18:45:15Z</time>
      </trkpt>
      <trkpt lat="49.18244" lon="-0.1808">
        <ele>28.5</ele>
        <time>2021-07-29T18:45:30Z</time>
      </trkpt>
      <trkpt lat="49.1824" lon="-0.18155">
        <ele>30.9</ele>
        <time>2021-07-29T18:45:39Z</time>
      </trkpt>
      <trkpt lat="49.18231" lon="-0.18236">
        <ele>31.86</ele>
        <time>2021-07-29T18:45:50Z</time>
      </trkpt>
      <trkpt lat="49.18229" lon="-0.18244">
        <ele>31.86</ele>
        <time>2021-07-29T18:45:51Z</time>
      </trkpt>
      <trkpt lat="49.18227" lon="-0.18251">
        <ele>31.86</ele>
        <time>2021-07-29T18:45:52Z</time>
      </trkpt>
      <trkpt lat="49.18224" lon="-0.1826">
        <ele>31.38</ele>
        <time>2021-07-29T18:45:53Z</time>
      </trkpt>
      <trkpt lat="49.18221" lon="-0.18267">
        <ele>31.38</ele>
        <time>2021-07-29T18:45:54Z</time>
      </trkpt>
      <trkpt lat="49.18216" lon="-0.18274">
        <ele>31.38</ele>
        <time>2021-07-29T18:45:55Z</time>
      </trkpt>
      <trkpt lat="49.18157" lon="-0.18372">
        <ele>30.9</ele>
        <time>2021-07-29T18:46:08Z</time>
      </trkpt>
      <trkpt lat="49.18091" lon="-0.18464">
        <ele>31.38</ele>
        <time>2021-07-29T18:46:26Z</time>
      </trkpt>
      <trkpt lat="49.18079" lon="-0.18479">
        <ele>31.38</ele>
        <time>2021-07-29T18:46:29Z</time>
      </trkpt>
      <trkpt lat="49.18075" lon="-0.18484">
        <ele>31.38</ele>
        <time>2021-07-29T18:46:30Z</time>
      </trkpt>
      <trkpt lat="49.18053" lon="-0.18516">
        <ele>30.9</ele>
        <time>2021-07-29T18:46:35Z</time>
      </trkpt>
      <trkpt lat="49.18048" lon="-0.18523">
        <ele>30.9</ele>
        <time>2021-07-29T18:46:36Z</time>
      </trkpt>
      <trkpt lat="49.1798" lon="-0.18613">
        <ele>32.34</ele>
        <time>2021-07-29T18:46:47Z</time>
      </trkpt>
      <trkpt lat="49.17975" lon="-0.18619">
        <ele>32.34</ele>
        <time>2021-07-29T18:46:48Z</time>
      </trkpt>
      <trkpt lat="49.17963" lon="-0.18669">
        <ele>32.34</ele>
        <time>2021-07-29T18:46:52Z</time>
      </trkpt>
      <trkpt lat="49.17963" lon="-0.18669">
        <ele>32.34</ele>
        <time>2021-07-29T18:46:53Z</time>
      </trkpt>
      <trkpt lat="49.17963" lon="-0.18682">
        <ele>32.34</ele>
        <time>2021-07-29T18:46:54Z</time>
      </trkpt>
      <trkpt lat="49.17959" lon="-0.1888">
        <ele>32.34</ele>
        <time>2021-07-29T18:47:06Z</time>
      </trkpt>
      <trkpt lat="49.17949" lon="-0.19157">
        <ele>30.9</ele>
        <time>2021-07-29T18:47:20Z</time>
      </trkpt>
      <trkpt lat="49.17939" lon="-0.19507">
        <ele>22.73</ele>
        <time>2021-07-29T18:47:35Z</time>
      </trkpt>
      <trkpt lat="49.17923" lon="-0.19847">
        <ele>13.12</ele>
        <time>2021-07-29T18:47:49Z</time>
      </trkpt>
      <trkpt lat="49.17905" lon="-0.19963">
        <ele>8.79</ele>
        <time>2021-07-29T18:47:56Z</time>
      </trkpt>
      <trkpt lat="49.17903" lon="-0.19977">
        <ele>8.79</ele>
        <time>2021-07-29T18:47:57Z</time>
      </trkpt>
      <trkpt lat="49.17917" lon="-0.20137">
        <ele>7.35</ele>
        <time>2021-07-29T18:48:07Z</time>
      </trkpt>
      <trkpt lat="49.17918" lon="-0.20162">
        <ele>6.39</ele>
        <time>2021-07-29T18:48:09Z</time>
      </trkpt>
      <trkpt lat="49.17918" lon="-0.20172">
        <ele>6.39</ele>
        <time>2021-07-29T18:48:10Z</time>
      </trkpt>
      <trkpt lat="49.17933" lon="-0.20187">
        <ele>5.91</ele>
        <time>2021-07-29T18:48:12Z</time>
      </trkpt>
      <trkpt lat="49.17935" lon="-0.20197">
        <ele>5.91</ele>
        <time>2021-07-29T18:48:13Z</time>
      </trkpt>
      <trkpt lat="49.17933" lon="-0.2021">
        <ele>5.91</ele>
        <time>2021-07-29T18:48:14Z</time>
      </trkpt>
      <trkpt lat="49.17931" lon="-0.2022">
        <ele>5.42</ele>
        <time>2021-07-29T18:48:15Z</time>
      </trkpt>
      <trkpt lat="49.17923" lon="-0.20224">
        <ele>5.42</ele>
        <time>2021-07-29T18:48:16Z</time>
      </trkpt>
      <trkpt lat="49.17916" lon="-0.20242">
        <ele>4.94</ele>
        <time>2021-07-29T18:48:17Z</time>
      </trkpt>
      <trkpt lat="49.17916" lon="-0.20255">
        <ele>4.94</ele>
        <time>2021-07-29T18:48:18Z</time>
      </trkpt>
      <trkpt lat="49.17915" lon="-0.20268">
        <ele>4.46</ele>
        <time>2021-07-29T18:48:19Z</time>
      </trkpt>
      <trkpt lat="49.17915" lon="-0.20283">
        <ele>4.94</ele>
        <time>2021-07-29T18:48:20Z</time>
      </trkpt>
      <trkpt lat="49.17907" lon="-0.20482">
        <ele>2.06</ele>
        <time>2021-07-29T18:48:30Z</time>
      </trkpt>
      <trkpt lat="49.17898" lon="-0.20808">
        <ele>5.42</ele>
        <time>2021-07-29T18:48:43Z</time>
      </trkpt>
      <trkpt lat="49.17881" lon="-0.21338">
        <ele>7.35</ele>
        <time>2021-07-29T18:49:02Z</time>
      </trkpt>
      <trkpt lat="49.17871" lon="-0.21525">
        <ele>8.79</ele>
        <time>2021-07-29T18:49:10Z</time>
      </trkpt>
      <trkpt lat="49.17871" lon="-0.21563">
        <ele>9.27</ele>
        <time>2021-07-29T18:49:13Z</time>
      </trkpt>
      <trkpt lat="49.17871" lon="-0.21565">
        <ele>9.27</ele>
        <time>2021-07-29T18:49:14Z</time>
      </trkpt>
      <trkpt lat="49.17871" lon="-0.21585">
        <ele>9.27</ele>
        <time>2021-07-29T18:49:15Z</time>
      </trkpt>
      <trkpt lat="49.17869" lon="-0.21596">
        <ele>9.75</ele>
        <time>2021-07-29T18:49:16Z</time>
      </trkpt>
      <trkpt lat="49.17867" lon="-0.21608">
        <ele>9.75</ele>
        <time>2021-07-29T18:49:17Z</time>
      </trkpt>
      <trkpt lat="49.17836" lon="-0.21776">
        <ele>11.19</ele>
        <time>2021-07-29T18:49:27Z</time>
      </trkpt>
      <trkpt lat="49.17799" lon="-0.22037">
        <ele>13.12</ele>
        <time>2021-07-29T18:49:40Z</time>
      </trkpt>
      <trkpt lat="49.1778" lon="-0.22166">
        <ele>12.15</ele>
        <time>2021-07-29T18:49:47Z</time>
      </trkpt>
      <trkpt lat="49.17779" lon="-0.22191">
        <ele>12.15</ele>
        <time>2021-07-29T18:49:48Z</time>
      </trkpt>
      <trkpt lat="49.17782" lon="-0.22199">
        <ele>12.63</ele>
        <time>2021-07-29T18:49:50Z</time>
      </trkpt>
      <trkpt lat="49.17779" lon="-0.22212">
        <ele>12.63</ele>
        <time>2021-07-29T18:49:51Z</time>
      </trkpt>
      <trkpt lat="49.17771" lon="-0.22233">
        <ele>12.63</ele>
        <time>2021-07-29T18:49:53Z</time>
      </trkpt>
      <trkpt lat="49.1777" lon="-0.22246">
        <ele>12.63</ele>
        <time>2021-07-29T18:49:54Z</time>
      </trkpt>
      <trkpt lat="49.17757" lon="-0.22466">
        <ele>14.08</ele>
        <time>2021-07-29T18:50:06Z</time>
      </trkpt>
      <trkpt lat="49.17732" lon="-0.2267">
        <ele>12.63</ele>
        <time>2021-07-29T18:50:17Z</time>
      </trkpt>
      <trkpt lat="49.17658" lon="-0.22939">
        <ele>14.08</ele>
        <time>2021-07-29T18:50:30Z</time>
      </trkpt>
      <trkpt lat="49.17559" lon="-0.2329">
        <ele>18.88</ele>
        <time>2021-07-29T18:50:46Z</time>
      </trkpt>
      <trkpt lat="49.17473" lon="-0.23612">
        <ele>20.81</ele>
        <time>2021-07-29T18:50:59Z</time>
      </trkpt>
      <trkpt lat="49.17452" lon="-0.24027">
        <ele>22.25</ele>
        <time>2021-07-29T18:51:14Z</time>
      </trkpt>
      <trkpt lat="49.17417" lon="-0.24725">
        <ele>23.69</ele>
        <time>2021-07-29T18:51:37Z</time>
      </trkpt>
      <trkpt lat="49.17381" lon="-0.2546">
        <ele>19.36</ele>
        <time>2021-07-29T18:51:59Z</time>
      </trkpt>
      <trkpt lat="49.17347" lon="-0.2615">
        <ele>16.96</ele>
        <time>2021-07-29T18:52:19Z</time>
      </trkpt>
      <trkpt lat="49.17332" lon="-0.26444">
        <ele>18.88</ele>
        <time>2021-07-29T18:52:29Z</time>
      </trkpt>
      <trkpt lat="49.17328" lon="-0.2652">
        <ele>19.84</ele>
        <time>2021-07-29T18:52:33Z</time>
      </trkpt>
      <trkpt lat="49.17328" lon="-0.26533">
        <ele>19.36</ele>
        <time>2021-07-29T18:52:34Z</time>
      </trkpt>
      <trkpt lat="49.17337" lon="-0.26544">
        <ele>19.84</ele>
        <time>2021-07-29T18:52:35Z</time>
      </trkpt>
      <trkpt lat="49.1734" lon="-0.26555">
        <ele>19.84</ele>
        <time>2021-07-29T18:52:36Z</time>
      </trkpt>
      <trkpt lat="49.17338" lon="-0.26569">
        <ele>19.84</ele>
        <time>2021-07-29T18:52:37Z</time>
      </trkpt>
      <trkpt lat="49.17335" lon="-0.26579">
        <ele>19.84</ele>
        <time>2021-07-29T18:52:38Z</time>
      </trkpt>
      <trkpt lat="49.17324" lon="-0.26602">
        <ele>19.84</ele>
        <time>2021-07-29T18:52:39Z</time>
      </trkpt>
      <trkpt lat="49.17324" lon="-0.26602">
        <ele>19.84</ele>
        <time>2021-07-29T18:52:40Z</time>
      </trkpt>
      <trkpt lat="49.17323" lon="-0.26614">
        <ele>19.84</ele>
        <time>2021-07-29T18:52:41Z</time>
      </trkpt>
      <trkpt lat="49.17323" lon="-0.26628">
        <ele>19.84</ele>
        <time>2021-07-29T18:52:42Z</time>
      </trkpt>
      <trkpt lat="49.17314" lon="-0.26798">
        <ele>21.29</ele>
        <time>2021-07-29T18:52:51Z</time>
      </trkpt>
      <trkpt lat="49.17297" lon="-0.2712">
        <ele>21.29</ele>
        <time>2021-07-29T18:53:03Z</time>
      </trkpt>
      <trkpt lat="49.17276" lon="-0.27521">
        <ele>22.73</ele>
        <time>2021-07-29T18:53:19Z</time>
      </trkpt>
      <trkpt lat="49.17265" lon="-0.27776">
        <ele>21.77</ele>
        <time>2021-07-29T18:53:30Z</time>
      </trkpt>
      <trkpt lat="49.17254" lon="-0.28019">
        <ele>19.36</ele>
        <time>2021-07-29T18:53:44Z</time>
      </trkpt>
      <trkpt lat="49.17251" lon="-0.28074">
        <ele>19.36</ele>
        <time>2021-07-29T18:53:51Z</time>
      </trkpt>
      <trkpt lat="49.17237" lon="-0.28131">
        <ele>18.88</ele>
        <time>2021-07-29T18:54:02Z</time>
      </trkpt>
      <trkpt lat="49.17231" lon="-0.28181">
        <ele>18.4</ele>
        <time>2021-07-29T18:54:08Z</time>
      </trkpt>
      <trkpt lat="49.17231" lon="-0.28188">
        <ele>18.4</ele>
        <time>2021-07-29T18:54:09Z</time>
      </trkpt>
      <trkpt lat="49.17242" lon="-0.28215">
        <ele>18.4</ele>
        <time>2021-07-29T18:54:15Z</time>
      </trkpt>
      <trkpt lat="49.17242" lon="-0.28223">
        <ele>17.92</ele>
        <time>2021-07-29T18:54:18Z</time>
      </trkpt>
      <trkpt lat="49.17236" lon="-0.28239">
        <ele>17.92</ele>
        <time>2021-07-29T18:54:19Z</time>
      </trkpt>
      <trkpt lat="49.17236" lon="-0.28372">
        <ele>16.96</ele>
        <time>2021-07-29T18:54:28Z</time>
      </trkpt>
      <trkpt lat="49.17227" lon="-0.2858">
        <ele>17.44</ele>
        <time>2021-07-29T18:54:38Z</time>
      </trkpt>
      <trkpt lat="49.17214" lon="-0.28864">
        <ele>18.4</ele>
        <time>2021-07-29T18:54:49Z</time>
      </trkpt>
      <trkpt lat="49.172" lon="-0.2918">
        <ele>22.25</ele>
        <time>2021-07-29T18:55:00Z</time>
      </trkpt>
      <trkpt lat="49.17201" lon="-0.29275">
        <ele>22.73</ele>
        <time>2021-07-29T18:55:06Z</time>
      </trkpt>
      <trkpt lat="49.17202" lon="-0.29284">
        <ele>23.69</ele>
        <time>2021-07-29T18:55:14Z</time>
      </trkpt>
      <trkpt lat="49.1721" lon="-0.29339">
        <ele>24.17</ele>
        <time>2021-07-29T18:55:22Z</time>
      </trkpt>
      <trkpt lat="49.1726" lon="-0.29482">
        <ele>21.77</ele>
        <time>2021-07-29T18:55:32Z</time>
      </trkpt>
      <trkpt lat="49.1731" lon="-0.29609">
        <ele>19.36</ele>
        <time>2021-07-29T18:55:43Z</time>
      </trkpt>
      <trkpt lat="49.17323" lon="-0.29643">
        <ele>19.36</ele>
        <time>2021-07-29T18:55:51Z</time>
      </trkpt>
      <trkpt lat="49.17339" lon="-0.29682">
        <ele>19.36</ele>
        <time>2021-07-29T18:56:03Z</time>
      </trkpt>
      <trkpt lat="49.17356" lon="-0.29691">
        <ele>18.4</ele>
        <time>2021-07-29T18:56:07Z</time>
      </trkpt>
      <trkpt lat="49.17361" lon="-0.29697">
        <ele>18.4</ele>
        <time>2021-07-29T18:56:08Z</time>
      </trkpt>
      <trkpt lat="49.17366" lon="-0.29703">
        <ele>18.4</ele>
        <time>2021-07-29T18:56:09Z</time>
      </trkpt>
      <trkpt lat="49.1737" lon="-0.29711">
        <ele>18.4</ele>
        <time>2021-07-29T18:56:10Z</time>
      </trkpt>
      <trkpt lat="49.17373" lon="-0.29722">
        <ele>18.4</ele>
        <time>2021-07-29T18:56:11Z</time>
      </trkpt>
      <trkpt lat="49.17373" lon="-0.2973">
        <ele>18.4</ele>
        <time>2021-07-29T18:56:12Z</time>
      </trkpt>
      <trkpt lat="49.1737" lon="-0.29743">
        <ele>17.92</ele>
        <time>2021-07-29T18:56:13Z</time>
      </trkpt>
      <trkpt lat="49.17368" lon="-0.29754">
        <ele>17.92</ele>
        <time>2021-07-29T18:56:14Z</time>
      </trkpt>
      <trkpt lat="49.17364" lon="-0.29761">
        <ele>17.92</ele>
        <time>2021-07-29T18:56:15Z</time>
      </trkpt>
      <trkpt lat="49.17358" lon="-0.29768">
        <ele>17.92</ele>
        <time>2021-07-29T18:56:16Z</time>
      </trkpt>
      <trkpt lat="49.17352" lon="-0.29773">
        <ele>18.4</ele>
        <time>2021-07-29T18:56:17Z</time>
      </trkpt>
      <trkpt lat="49.17345" lon="-0.29776">
        <ele>18.4</ele>
        <time>2021-07-29T18:56:18Z</time>
      </trkpt>
      <trkpt lat="49.1734" lon="-0.29776">
        <ele>18.4</ele>
        <time>2021-07-29T18:56:19Z</time>
      </trkpt>
      <trkpt lat="49.17335" lon="-0.29773">
        <ele>18.4</ele>
        <time>2021-07-29T18:56:20Z</time>
      </trkpt>
      <trkpt lat="49.17329" lon="-0.29769">
        <ele>18.88</ele>
        <time>2021-07-29T18:56:21Z</time>
      </trkpt>
      <trkpt lat="49.17319" lon="-0.29769">
        <ele>18.4</ele>
        <time>2021-07-29T18:56:22Z</time>
      </trkpt>
      <trkpt lat="49.17314" lon="-0.29771">
        <ele>18.88</ele>
        <time>2021-07-29T18:56:23Z</time>
      </trkpt>
      <trkpt lat="49.17309" lon="-0.29774">
        <ele>18.88</ele>
        <time>2021-07-29T18:56:24Z</time>
      </trkpt>
      <trkpt lat="49.17297" lon="-0.29782">
        <ele>19.36</ele>
        <time>2021-07-29T18:56:25Z</time>
      </trkpt>
      <trkpt lat="49.17297" lon="-0.29782">
        <ele>19.36</ele>
        <time>2021-07-29T18:56:26Z</time>
      </trkpt>
      <trkpt lat="49.17216" lon="-0.29856">
        <ele>23.21</ele>
        <time>2021-07-29T18:56:37Z</time>
      </trkpt>
      <trkpt lat="49.17073" lon="-0.29984">
        <ele>25.13</ele>
        <time>2021-07-29T18:56:50Z</time>
      </trkpt>
      <trkpt lat="49.17022" lon="-0.30045">
        <ele>23.69</ele>
        <time>2021-07-29T18:56:55Z</time>
      </trkpt>
      <trkpt lat="49.17014" lon="-0.30054">
        <ele>24.17</ele>
        <time>2021-07-29T18:56:56Z</time>
      </trkpt>
      <trkpt lat="49.17007" lon="-0.30066">
        <ele>24.17</ele>
        <time>2021-07-29T18:56:57Z</time>
      </trkpt>
      <trkpt lat="49.17001" lon="-0.30078">
        <ele>23.69</ele>
        <time>2021-07-29T18:56:58Z</time>
      </trkpt>
      <trkpt lat="49.16996" lon="-0.30092">
        <ele>22.73</ele>
        <time>2021-07-29T18:56:59Z</time>
      </trkpt>
      <trkpt lat="49.16994" lon="-0.3011">
        <ele>21.77</ele>
        <time>2021-07-29T18:57:00Z</time>
      </trkpt>
      <trkpt lat="49.16993" lon="-0.30127">
        <ele>21.77</ele>
        <time>2021-07-29T18:57:01Z</time>
      </trkpt>
      <trkpt lat="49.16997" lon="-0.30144">
        <ele>21.29</ele>
        <time>2021-07-29T18:57:02Z</time>
      </trkpt>
      <trkpt lat="49.17" lon="-0.30161">
        <ele>20.32</ele>
        <time>2021-07-29T18:57:03Z</time>
      </trkpt>
      <trkpt lat="49.17008" lon="-0.30196">
        <ele>18.88</ele>
        <time>2021-07-29T18:57:04Z</time>
      </trkpt>
      <trkpt lat="49.17082" lon="-0.30397">
        <ele>11.67</ele>
        <time>2021-07-29T18:57:16Z</time>
      </trkpt>
      <trkpt lat="49.17219" lon="-0.30678">
        <ele>7.35</ele>
        <time>2021-07-29T18:57:28Z</time>
      </trkpt>
      <trkpt lat="49.17367" lon="-0.3095">
        <ele>7.83</ele>
        <time>2021-07-29T18:57:42Z</time>
      </trkpt>
      <trkpt lat="49.17502" lon="-0.3121">
        <ele>9.27</ele>
        <time>2021-07-29T18:57:56Z</time>
      </trkpt>
      <trkpt lat="49.17554" lon="-0.31314">
        <ele>10.23</ele>
        <time>2021-07-29T18:58:01Z</time>
      </trkpt>
      <trkpt lat="49.17584" lon="-0.31384">
        <ele>15.04</ele>
        <time>2021-07-29T18:58:04Z</time>
      </trkpt>
      <trkpt lat="49.17592" lon="-0.31402">
        <ele>16.48</ele>
        <time>2021-07-29T18:58:05Z</time>
      </trkpt>
      <trkpt lat="49.176" lon="-0.3142">
        <ele>17.44</ele>
        <time>2021-07-29T18:58:06Z</time>
      </trkpt>
      <trkpt lat="49.17684" lon="-0.31614">
        <ele>22.25</ele>
        <time>2021-07-29T18:58:14Z</time>
      </trkpt>
      <trkpt lat="49.17811" lon="-0.31904">
        <ele>25.61</ele>
        <time>2021-07-29T18:58:28Z</time>
      </trkpt>
      <trkpt lat="49.17922" lon="-0.32163">
        <ele>27.53</ele>
        <time>2021-07-29T18:58:41Z</time>
      </trkpt>
      <trkpt lat="49.18005" lon="-0.32328">
        <ele>27.53</ele>
        <time>2021-07-29T18:58:52Z</time>
      </trkpt>
      <trkpt lat="49.18129" lon="-0.32466">
        <ele>35.23</ele>
        <time>2021-07-29T18:59:02Z</time>
      </trkpt>
      <trkpt lat="49.18269" lon="-0.32599">
        <ele>40.03</ele>
        <time>2021-07-29T18:59:13Z</time>
      </trkpt>
      <trkpt lat="49.18495" lon="-0.32815">
        <ele>52.05</ele>
        <time>2021-07-29T18:59:30Z</time>
      </trkpt>
      <trkpt lat="49.18652" lon="-0.32964">
        <ele>62.62</ele>
        <time>2021-07-29T18:59:42Z</time>
      </trkpt>
      <trkpt lat="49.18865" lon="-0.33168">
        <ele>53.01</ele>
        <time>2021-07-29T18:59:57Z</time>
      </trkpt>
      <trkpt lat="49.19089" lon="-0.33372">
        <ele>44.84</ele>
        <time>2021-07-29T19:00:12Z</time>
      </trkpt>
      <trkpt lat="49.19306" lon="-0.33581">
        <ele>45.32</ele>
        <time>2021-07-29T19:00:27Z</time>
      </trkpt>
      <trkpt lat="49.19491" lon="-0.3376">
        <ele>55.41</ele>
        <time>2021-07-29T19:00:41Z</time>
      </trkpt>
      <trkpt lat="49.19679" lon="-0.33973">
        <ele>63.1</ele>
        <time>2021-07-29T19:00:54Z</time>
      </trkpt>
      <trkpt lat="49.1981" lon="-0.34173">
        <ele>65.03</ele>
        <time>2021-07-29T19:01:07Z</time>
      </trkpt>
      <trkpt lat="49.19945" lon="-0.34434">
        <ele>66.95</ele>
        <time>2021-07-29T19:01:20Z</time>
      </trkpt>
      <trkpt lat="49.20061" lon="-0.34725">
        <ele>70.31</ele>
        <time>2021-07-29T19:01:33Z</time>
      </trkpt>
      <trkpt lat="49.20154" lon="-0.35012">
        <ele>71.76</ele>
        <time>2021-07-29T19:01:45Z</time>
      </trkpt>
    </trkseg>
  </trk>
</gpx>